createdAt,value
2023-10-20T00:46:11.349Z,16.02
2023-10-20T00:48:39.894Z,15.90
2023-10-20T00:51:08.767Z,15.92
2023-10-20T00:53:38.123Z,15.88
2023-10-20T00:56:07.541Z,16.00
2023-10-20T00:58:35.924Z,15.97
2023-10-20T01:01:06.142Z,15.95
2023-10-20T01:03:37.136Z,16.03
2023-10-20T01:06:06.364Z,16.12
2023-10-20T01:08:35.514Z,16.07
2023-10-20T01:11:16.400Z,16.15
2023-10-20T01:13:44.146Z,16.09
2023-10-20T01:16:12.099Z,16.08
2023-10-20T01:18:41.576Z,16.00
2023-10-20T01:21:09.410Z,15.97
2023-10-20T01:23:39.088Z,15.93
2023-10-20T01:26:08.968Z,16.07
2023-10-20T01:28:38.192Z,16.10
2023-10-20T01:31:06.073Z,16.11
2023-10-20T01:33:33.977Z,16.08
2023-10-20T01:36:02.104Z,16.07
2023-10-20T01:38:30.141Z,16.15
2023-10-20T01:40:57.988Z,16.23
2023-10-20T01:43:27.238Z,16.19
2023-10-20T01:45:55.103Z,16.18
2023-10-20T01:48:22.977Z,16.02
2023-10-20T01:50:51.051Z,15.87
2023-10-20T01:53:19.048Z,15.84
2023-10-20T01:55:50.907Z,15.87
2023-10-20T01:58:19.712Z,15.78
2023-10-20T02:00:52.144Z,15.70
2023-10-20T02:03:21.222Z,15.64
2023-10-20T02:05:49.500Z,15.54
2023-10-20T02:08:18.022Z,15.47
2023-10-20T02:10:46.654Z,15.54
2023-10-20T02:13:14.690Z,15.43
2023-10-20T02:15:48.036Z,15.43
2023-10-20T02:18:18.642Z,15.39
2023-10-20T02:20:46.813Z,15.33
2023-10-20T02:23:14.518Z,15.44
2023-10-20T02:25:42.186Z,15.52
2023-10-20T02:28:09.817Z,15.58
2023-10-20T02:30:37.508Z,15.49
2023-10-20T02:33:05.677Z,15.43
2023-10-20T02:35:34.764Z,15.43
2023-10-20T02:38:02.547Z,15.39
2023-10-20T02:40:30.223Z,15.53
2023-10-20T02:42:57.912Z,15.45
2023-10-20T02:45:25.625Z,15.34
2023-10-20T02:47:53.631Z,15.48
2023-10-20T02:50:21.614Z,15.53
2023-10-20T02:52:50.820Z,15.56
2023-10-20T02:55:18.855Z,15.52
2023-10-20T02:57:46.498Z,15.58
2023-10-20T03:00:19.215Z,15.53
2023-10-20T03:02:49.719Z,15.55
2023-10-20T03:05:17.977Z,15.45
2023-10-20T03:07:46.940Z,15.37
2023-10-20T03:10:17.345Z,15.51
2023-10-20T03:12:45.011Z,15.40
2023-10-20T03:15:12.956Z,15.54
2023-10-20T03:17:40.682Z,15.40
2023-10-20T03:20:10.546Z,15.55
2023-10-20T03:22:38.602Z,15.30
2023-10-20T03:25:08.938Z,15.28
2023-10-20T03:27:39.055Z,15.22
2023-10-20T03:30:08.157Z,15.14
2023-10-20T03:32:36.375Z,15.03
2023-10-20T03:35:04.558Z,15.13
2023-10-20T03:37:32.671Z,15.10
2023-10-20T03:40:00.327Z,15.14
2023-10-20T03:42:28.004Z,15.12
2023-10-20T03:44:57.602Z,15.04
2023-10-20T03:47:29.036Z,15.26
2023-10-20T03:49:59.078Z,15.18
2023-10-20T03:52:29.443Z,15.10
2023-10-20T03:54:57.267Z,15.17
2023-10-20T03:57:25.020Z,15.19
2023-10-20T03:59:52.773Z,15.29
2023-10-20T04:02:21.806Z,15.37
2023-10-20T04:04:49.455Z,15.41
2023-10-20T04:07:17.171Z,15.45
2023-10-20T04:09:45.123Z,15.46
2023-10-20T04:12:12.798Z,15.32
2023-10-20T04:14:40.500Z,15.36
2023-10-20T04:17:08.296Z,15.37
2023-10-20T04:19:37.375Z,15.54
2023-10-20T04:22:13.724Z,15.51
2023-10-20T04:24:42.397Z,15.45
2023-10-20T04:27:21.714Z,15.44
2023-10-20T04:30:09.867Z,15.30
2023-10-20T04:32:55.137Z,15.33
2023-10-20T04:35:40.881Z,15.43
2023-10-20T04:38:26.301Z,15.44
2023-10-20T04:41:11.162Z,15.48
2023-10-20T04:43:42.996Z,15.48
2023-10-20T04:46:28.194Z,15.39
2023-10-20T04:49:28.083Z,15.38
2023-10-20T04:52:16.787Z,15.28
2023-10-20T04:54:52.017Z,15.48
2023-10-20T04:57:36.576Z,15.38
2023-10-20T05:00:18.425Z,15.28
2023-10-20T05:02:58.204Z,15.31
2023-10-20T05:05:34.600Z,15.31
2023-10-20T05:08:06.705Z,15.34
2023-10-20T05:10:34.802Z,15.37
2023-10-20T05:13:02.388Z,15.42
2023-10-20T05:15:32.780Z,15.34
2023-10-20T05:18:00.943Z,15.24
2023-10-20T05:20:28.791Z,15.41
2023-10-20T05:22:57.572Z,15.36
2023-10-20T05:25:26.689Z,15.38
2023-10-20T05:27:54.531Z,15.24
2023-10-20T05:30:22.162Z,15.04
2023-10-20T05:32:51.113Z,14.95
2023-10-20T05:35:18.897Z,14.98
2023-10-20T05:37:46.558Z,15.03
2023-10-20T05:40:14.601Z,14.96
2023-10-20T05:42:43.593Z,15.03
2023-10-20T05:45:18.280Z,14.91
2023-10-20T05:47:46.576Z,14.92
2023-10-20T05:50:14.670Z,15.01
2023-10-20T05:52:42.445Z,15.14
2023-10-20T05:55:12.131Z,15.34
2023-10-20T06:01:48.091Z,15.23
2023-10-20T06:04:45.576Z,15.07
2023-10-20T06:07:20.737Z,15.18
2023-10-20T06:10:25.319Z,15.11
2023-10-20T06:13:05.124Z,15.01
2023-10-20T08:01:47.947Z,14.81
2023-10-20T08:04:15.710Z,14.72
2023-10-20T08:06:43.485Z,14.75
2023-10-20T08:09:13.026Z,14.80
2023-10-20T08:11:43.071Z,14.75
2023-10-20T08:14:10.983Z,14.87
2023-10-20T08:16:39.442Z,14.91
2023-10-20T08:19:08.627Z,14.93
2023-10-20T08:21:36.612Z,14.89
2023-10-20T08:24:06.076Z,14.85
2023-10-20T08:26:34.025Z,14.83
2023-10-20T08:29:02.268Z,14.95
2023-10-20T08:31:29.996Z,15.10
2023-10-20T08:33:58.476Z,14.85
2023-10-20T08:36:27.664Z,14.90
2023-10-20T08:38:55.416Z,14.90
2023-10-20T08:41:24.950Z,14.77
2023-10-20T08:43:53.390Z,14.92
2023-10-20T08:46:23.970Z,14.94
2023-10-20T08:48:52.059Z,14.85
2023-10-20T08:51:20.293Z,15.01
2023-10-20T08:53:50.021Z,14.97
2023-10-20T08:56:18.064Z,15.10
2023-10-20T08:58:47.527Z,15.20
2023-10-20T09:01:16.201Z,15.10
2023-10-20T09:03:46.178Z,15.10
2023-10-20T09:06:15.842Z,14.95
2023-10-20T09:08:45.193Z,15.22
2023-10-20T09:11:14.648Z,15.14
2023-10-20T09:13:44.485Z,15.15
2023-10-20T09:16:14.525Z,15.09
2023-10-20T09:18:47.712Z,15.13
2023-10-20T09:21:16.412Z,15.11
2023-10-20T09:23:55.353Z,15.28
2023-10-20T09:26:25.171Z,15.21
2023-10-20T09:28:54.915Z,15.09
2023-10-20T09:31:23.846Z,15.28
2023-10-20T09:33:52.250Z,15.06
2023-10-20T09:36:20.371Z,14.95
2023-10-20T09:38:52.511Z,15.02
2023-10-20T09:41:24.309Z,15.08
2023-10-20T09:43:54.575Z,15.15
2023-10-20T09:46:46.840Z,15.12
2023-10-20T09:49:17.430Z,15.11
2023-10-20T09:51:46.657Z,15.40
2023-10-20T09:54:15.611Z,15.39
2023-10-20T09:56:46.572Z,15.62
2023-10-20T09:59:19.563Z,15.64
2023-10-20T10:01:47.503Z,15.53
2023-10-20T10:04:15.478Z,15.35
2023-10-20T10:06:46.804Z,15.18
2023-10-20T10:09:16.306Z,15.30
2023-10-20T10:11:46.687Z,15.47
2023-10-20T10:14:21.626Z,15.41
2023-10-20T10:16:54.644Z,15.32
2023-10-20T10:19:26.406Z,15.47
2023-10-20T10:21:58.082Z,15.37
2023-10-20T10:24:26.529Z,15.14
2023-10-20T10:26:58.096Z,15.42
2023-10-20T10:29:48.289Z,15.60
2023-10-20T10:32:20.274Z,15.41
2023-10-20T10:34:50.017Z,15.20
2023-10-20T10:37:30.431Z,15.24
2023-10-20T10:40:10.077Z,15.34
2023-10-20T10:42:40.965Z,15.47
2023-10-20T10:45:24.414Z,15.37
2023-10-20T10:47:53.683Z,15.36
2023-10-20T10:50:23.378Z,15.24
2023-10-20T10:52:52.711Z,15.14
2023-10-20T10:55:21.338Z,14.98
2023-10-20T10:57:52.238Z,15.13
2023-10-20T11:00:20.626Z,15.28
2023-10-20T11:02:48.920Z,15.38
2023-10-20T11:05:17.532Z,15.54
2023-10-20T11:08:02.706Z,15.40
2023-10-20T11:10:31.986Z,15.40
2023-10-20T11:13:01.710Z,15.47
2023-10-20T11:15:30.677Z,15.29
2023-10-20T11:17:59.946Z,15.43
2023-10-20T11:20:30.797Z,15.31
2023-10-20T11:22:59.780Z,15.17
2023-10-20T11:25:27.756Z,15.29
2023-10-20T11:27:56.273Z,15.28
2023-10-20T11:30:27.528Z,15.22
2023-10-20T11:32:56.164Z,15.29
2023-10-20T11:35:25.785Z,15.14
2023-10-20T11:37:54.255Z,15.23
2023-10-20T11:40:22.310Z,15.05
2023-10-20T11:42:50.279Z,15.20
2023-10-20T11:45:18.914Z,15.23
2023-10-20T11:47:48.068Z,15.24
2023-10-20T11:50:16.774Z,15.24
2023-10-20T11:52:45.041Z,15.18
2023-10-20T11:55:13.610Z,15.12
2023-10-20T11:57:41.558Z,15.11
2023-10-20T12:00:11.068Z,15.15
2023-10-20T12:02:39.556Z,15.36
2023-10-20T12:05:09.725Z,15.14
2023-10-20T12:07:38.496Z,15.13
2023-10-20T12:10:07.570Z,15.19
2023-10-20T12:12:35.641Z,15.07
2023-10-20T12:15:04.326Z,14.98
2023-10-20T12:17:32.349Z,14.83
2023-10-20T12:20:00.039Z,14.81
2023-10-20T12:22:29.129Z,14.79
2023-10-20T12:24:57.046Z,14.90
2023-10-20T12:27:25.300Z,14.83
2023-10-20T12:29:53.080Z,14.80
2023-10-20T12:32:20.738Z,15.02
2023-10-20T12:34:48.365Z,15.06
2023-10-20T12:37:15.954Z,15.07
2023-10-20T12:39:44.828Z,14.99
2023-10-20T12:42:13.695Z,14.98
2023-10-20T12:44:41.296Z,14.92
2023-10-20T12:47:08.916Z,15.00
2023-10-20T12:49:36.557Z,14.95
2023-10-20T12:52:05.308Z,15.06
2023-10-20T12:54:33.286Z,14.97
2023-10-20T12:57:02.559Z,15.04
2023-10-20T12:59:30.766Z,15.06
2023-10-20T13:01:58.617Z,14.97
2023-10-20T13:04:26.604Z,14.95
2023-10-20T13:07:00.741Z,14.93
2023-10-20T13:09:29.054Z,14.86
2023-10-20T13:11:58.718Z,14.68
2023-10-20T13:14:28.276Z,14.80
2023-10-20T13:16:56.242Z,14.85
2023-10-20T13:19:24.184Z,14.93
2023-10-20T13:21:51.907Z,14.83
2023-10-20T13:24:19.686Z,15.08
2023-10-20T13:26:47.485Z,15.24
2023-10-20T13:29:15.214Z,15.31
2023-10-20T13:31:44.480Z,15.12
2023-10-20T13:34:12.293Z,15.12
2023-10-20T13:36:40.017Z,14.98
2023-10-20T13:39:18.150Z,14.83
2023-10-20T13:41:48.650Z,14.85
2023-10-20T13:44:17.795Z,14.97
2023-10-20T13:46:47.007Z,15.11
2023-10-20T13:49:14.742Z,15.30
2023-10-20T13:51:42.488Z,15.47
2023-10-20T13:54:10.364Z,15.34
2023-10-20T13:56:38.152Z,15.57
2023-10-20T13:59:06.925Z,15.60
2023-10-20T14:01:34.902Z,15.33
2023-10-20T14:04:06.216Z,15.27
2023-10-20T14:06:34.254Z,15.13
2023-10-20T14:09:02.413Z,15.23
2023-10-20T14:11:30.450Z,15.20
2023-10-20T14:13:58.207Z,15.16
2023-10-20T14:16:26.166Z,15.16
2023-10-20T14:18:53.922Z,15.39
2023-10-20T14:21:24.450Z,15.45
2023-10-20T14:23:52.287Z,15.41
2023-10-20T14:26:20.237Z,15.23
2023-10-20T14:28:47.931Z,15.28
2023-10-20T14:31:15.802Z,15.61
2023-10-20T14:33:43.564Z,15.73
2023-10-20T14:36:14.732Z,15.79
2023-10-20T14:38:43.913Z,15.86
2023-10-20T14:41:11.834Z,15.96
2023-10-20T14:43:40.719Z,15.97
2023-10-20T14:46:10.133Z,15.90
2023-10-20T14:48:38.467Z,15.94
2023-10-20T14:51:11.784Z,15.96
2023-10-20T14:53:39.770Z,15.86
2023-10-20T14:56:16.236Z,16.02
2023-10-20T14:58:44.072Z,16.09
2023-10-20T15:01:13.165Z,16.06
2023-10-20T15:03:41.152Z,16.10
2023-10-20T15:06:09.041Z,15.99
2023-10-20T15:08:37.098Z,16.16
2023-10-20T15:11:10.010Z,15.90
2023-10-20T15:13:37.701Z,15.15
2023-10-20T15:16:07.018Z,15.29
2023-10-20T15:18:35.185Z,15.41
2023-10-20T15:21:05.751Z,15.08
2023-10-20T15:23:33.782Z,15.22
2023-10-20T15:26:04.752Z,15.14
2023-10-20T15:28:34.014Z,15.07
2023-10-20T15:31:08.523Z,15.09
2023-10-20T15:33:37.339Z,15.21
2023-10-20T15:36:06.776Z,15.19
2023-10-20T15:38:34.942Z,14.90
2023-10-20T15:41:02.840Z,14.83
2023-10-20T15:43:30.639Z,14.66
2023-10-20T15:46:00.866Z,14.77
2023-10-20T15:48:29.059Z,14.74
2023-10-20T15:50:57.010Z,14.75
2023-10-20T15:53:25.486Z,14.78
2023-10-20T15:55:55.825Z,14.89
2023-10-20T15:58:23.561Z,14.58
2023-10-20T16:00:51.395Z,14.72
2023-10-20T16:03:21.018Z,14.35
2023-10-20T16:05:48.962Z,14.39
2023-10-20T16:08:16.703Z,14.51
2023-10-20T16:10:44.636Z,14.46
2023-10-20T16:13:12.346Z,14.40
2023-10-20T16:15:40.159Z,14.48
2023-10-20T16:18:08.286Z,14.70
2023-10-20T16:20:38.209Z,14.65
2023-10-20T16:23:06.157Z,14.68
2023-10-20T16:25:36.550Z,14.65
2023-10-20T16:28:04.939Z,14.46
2023-10-20T16:30:33.112Z,14.25
2023-10-20T16:33:01.605Z,14.53
2023-10-20T16:35:33.884Z,14.42
2023-10-20T16:38:03.682Z,14.67
2023-10-20T16:40:32.589Z,14.50
2023-10-20T16:43:00.567Z,14.74
2023-10-20T16:45:28.512Z,14.30
2023-10-20T16:47:56.405Z,14.40
2023-10-20T16:50:24.509Z,14.51
2023-10-20T16:52:52.933Z,14.33
2023-10-20T16:55:22.318Z,14.51
2023-10-20T16:57:50.242Z,14.57
2023-10-20T17:00:18.729Z,14.78
2023-10-20T17:02:48.377Z,14.80
2023-10-20T17:05:16.315Z,14.87
2023-10-20T17:07:44.046Z,14.89
2023-10-20T17:10:13.691Z,14.87
2023-10-20T17:12:43.038Z,14.57
2023-10-20T17:15:10.836Z,14.74
2023-10-20T17:17:38.677Z,14.49
2023-10-20T17:20:07.341Z,14.65
2023-10-20T17:22:35.304Z,14.85
2023-10-20T17:25:03.561Z,14.73
2023-10-20T17:27:31.397Z,14.76
2023-10-20T17:30:00.728Z,14.92
2023-10-20T17:32:28.614Z,14.83
2023-10-20T17:34:56.430Z,14.81
2023-10-20T17:37:24.043Z,14.81
2023-10-20T17:39:53.293Z,14.75
2023-10-20T17:42:21.380Z,14.87
2023-10-20T17:44:49.040Z,14.71
2023-10-20T17:47:18.026Z,14.87
2023-10-20T17:49:45.600Z,14.90
2023-10-20T17:52:13.189Z,14.72
2023-10-20T17:54:40.824Z,14.73
2023-10-20T17:57:08.485Z,14.83
2023-10-20T17:59:36.316Z,14.86
2023-10-20T18:02:04.099Z,14.60
2023-10-20T18:04:33.199Z,14.63
2023-10-20T18:07:00.830Z,14.67
2023-10-20T18:09:28.441Z,14.60
2023-10-20T18:11:56.411Z,14.61
2023-10-20T18:14:23.959Z,14.67
2023-10-20T18:16:51.987Z,14.65
2023-10-20T18:19:19.679Z,14.71
2023-10-20T18:21:48.610Z,14.79
2023-10-20T18:24:16.166Z,14.76
2023-10-20T18:26:43.786Z,14.75
2023-10-20T18:29:11.550Z,14.58
2023-10-20T18:31:39.202Z,14.52
2023-10-20T18:34:07.277Z,14.72
2023-10-20T18:36:34.876Z,14.70
2023-10-20T18:39:04.460Z,14.54
2023-10-20T18:41:32.767Z,14.40
2023-10-20T18:44:01.491Z,14.41
2023-10-20T18:46:29.076Z,14.46
2023-10-20T18:48:56.640Z,14.40
2023-10-20T18:51:24.255Z,14.35
2023-10-20T18:53:53.171Z,14.38
2023-10-20T18:56:22.846Z,14.44
2023-10-20T18:58:50.485Z,14.44
2023-10-20T19:01:18.089Z,14.45
2023-10-20T19:03:45.875Z,14.46
2023-10-20T19:06:14.134Z,14.43
2023-10-20T19:08:42.123Z,14.32
2023-10-20T19:11:11.518Z,14.39
2023-10-20T19:13:40.816Z,14.45
2023-10-20T19:16:08.461Z,14.31
2023-10-20T19:18:36.567Z,14.21
2023-10-20T19:21:06.044Z,14.16
2023-10-20T19:23:34.081Z,14.19
2023-10-20T19:26:02.280Z,14.08
2023-10-20T19:28:30.698Z,14.02
2023-10-20T19:31:01.276Z,14.18
2023-10-20T19:33:29.439Z,14.04
2023-10-20T19:35:57.586Z,14.03
2023-10-20T19:38:25.649Z,13.96
2023-10-20T19:40:53.913Z,13.92
2023-10-20T19:43:21.760Z,13.86
2023-10-20T19:45:49.428Z,13.88
2023-10-20T19:48:18.511Z,13.94
2023-10-20T19:50:46.487Z,13.95
2023-10-20T19:53:14.185Z,13.91
2023-10-20T19:55:43.901Z,13.84
2023-10-20T19:58:12.083Z,13.78
2023-10-20T20:00:40.661Z,13.80
2023-10-20T20:03:08.860Z,13.77
2023-10-20T20:05:38.341Z,13.81
2023-10-20T20:08:06.157Z,13.93
2023-10-20T20:10:33.965Z,13.88
2023-10-20T20:13:01.655Z,13.82
2023-10-20T20:15:29.406Z,13.79
2023-10-20T20:17:57.742Z,13.81
2023-10-20T20:20:25.559Z,13.70
2023-10-20T20:22:54.813Z,13.68
2023-10-20T20:25:22.462Z,13.63
2023-10-20T20:27:50.329Z,13.79
2023-10-20T20:30:18.210Z,13.84
2023-10-20T20:32:46.120Z,13.84
2023-10-20T20:35:13.857Z,13.83
2023-10-20T20:37:41.697Z,13.81
2023-10-20T20:40:11.845Z,13.81
2023-10-20T20:42:40.974Z,13.71
2023-10-20T20:45:10.467Z,13.71
2023-10-20T20:47:38.274Z,13.75
2023-10-20T20:50:10.671Z,13.80
2023-10-20T20:52:41.065Z,13.80
2023-10-20T20:55:11.900Z,13.90
2023-10-20T20:57:39.620Z,13.86
2023-10-20T21:00:08.606Z,13.82
2023-10-20T21:02:36.477Z,13.81
2023-10-20T21:05:04.620Z,13.81
2023-10-20T21:07:32.330Z,14.02
2023-10-20T21:10:00.062Z,14.00
2023-10-20T21:12:30.580Z,13.94
2023-10-20T21:14:58.696Z,13.88
2023-10-20T21:17:26.600Z,13.82
2023-10-20T21:19:54.308Z,13.85
2023-10-20T21:22:22.145Z,13.85
2023-10-20T21:24:49.799Z,13.89
2023-10-20T21:27:17.485Z,14.00
2023-10-20T21:29:46.550Z,13.91
2023-10-20T21:32:14.410Z,13.81
2023-10-20T21:34:42.165Z,13.72
2023-10-20T21:37:09.998Z,13.88
2023-10-20T21:39:37.761Z,13.85
2023-10-20T21:42:06.426Z,13.74
2023-10-20T21:44:34.904Z,13.73
2023-10-20T21:47:04.277Z,13.69
2023-10-20T21:49:32.013Z,13.89
2023-10-20T21:52:01.801Z,13.83
2023-10-20T21:54:29.525Z,13.80
2023-10-20T21:56:57.408Z,13.84
2023-10-20T21:59:25.289Z,13.76
2023-10-20T22:02:08.384Z,13.81
2023-10-20T22:04:39.095Z,13.76
2023-10-20T22:07:06.928Z,13.75
2023-10-20T22:09:50.037Z,13.80
2023-10-20T22:12:20.428Z,13.76
2023-10-20T22:14:48.156Z,13.82
2023-10-20T22:17:16.063Z,13.74
2023-10-20T22:19:45.348Z,13.79
2023-10-20T22:22:13.264Z,13.78
2023-10-20T22:24:41.419Z,13.80
2023-10-20T22:27:09.401Z,13.79
2023-10-20T22:29:37.810Z,13.84
2023-10-20T22:32:06.934Z,13.84
2023-10-20T22:34:35.050Z,13.92
2023-10-20T22:37:04.695Z,13.85
2023-10-20T22:39:32.436Z,13.74
2023-10-20T22:42:01.168Z,13.67
2023-10-20T22:44:29.724Z,13.70
2023-10-20T22:46:57.589Z,13.82
2023-10-20T22:49:25.823Z,13.83
2023-10-20T22:51:53.630Z,13.79
2023-10-20T22:54:22.977Z,13.79
2023-10-20T22:56:50.882Z,13.81
2023-10-20T22:59:18.707Z,13.96
2023-10-20T23:01:46.613Z,13.88
2023-10-20T23:04:17.169Z,13.72
2023-10-20T23:06:46.599Z,13.86
2023-10-20T23:09:15.039Z,13.88
2023-10-20T23:11:44.985Z,13.80
2023-10-20T23:14:13.769Z,13.77
2023-10-20T23:16:42.003Z,13.82
2023-10-20T23:19:10.103Z,13.78
2023-10-20T23:21:38.031Z,13.74
2023-10-20T23:24:11.680Z,13.74
2023-10-20T23:26:43.528Z,13.80
2023-10-20T23:29:16.666Z,13.70
2023-10-20T23:32:23.845Z,13.69
2023-10-20T23:34:54.914Z,13.77
2023-10-20T23:37:32.000Z,13.75
2023-10-20T23:40:03.248Z,13.66
2023-10-20T23:42:34.926Z,13.77
2023-10-20T23:45:42.608Z,13.79
2023-10-20T23:48:17.044Z,13.75
2023-10-20T23:50:49.424Z,13.79
2023-10-20T23:56:17.637Z,13.73
